createdAt,value
2022-09-15T00:00:37.511Z,0.00
2022-09-15T00:01:37.579Z,0.00
2022-09-15T00:02:37.549Z,0.00
2022-09-15T00:03:37.515Z,0.00
2022-09-15T00:04:37.481Z,0.00
2022-09-15T00:05:37.482Z,0.00
2022-09-15T00:06:37.462Z,0.00
2022-09-15T00:07:37.466Z,0.00
2022-09-15T00:08:37.457Z,0.00
2022-09-15T00:09:37.477Z,0.00
2022-09-15T00:10:37.425Z,0.00
2022-09-15T00:11:37.425Z,0.00
2022-09-15T00:12:37.420Z,0.00
2022-09-15T00:13:37.405Z,0.00
2022-09-15T00:14:37.408Z,0.00
2022-09-15T00:15:37.510Z,0.00
2022-09-15T00:16:37.477Z,0.00
2022-09-15T00:17:37.390Z,0.00
2022-09-15T00:18:37.357Z,0.00
2022-09-15T00:19:37.373Z,0.00
2022-09-15T00:20:37.352Z,0.00
2022-09-15T00:21:37.377Z,0.00
2022-09-15T00:22:37.348Z,0.00
2022-09-15T00:23:37.334Z,0.00
2022-09-15T00:24:37.311Z,0.00
2022-09-15T00:25:37.301Z,0.00
2022-09-15T00:26:37.306Z,0.00
2022-09-15T00:27:37.300Z,0.00
2022-09-15T00:28:37.273Z,0.00
2022-09-15T00:29:37.282Z,0.00
2022-09-15T00:30:37.301Z,0.00
2022-09-15T00:31:37.253Z,0.00
2022-09-15T00:32:37.243Z,0.00
2022-09-15T00:33:37.257Z,0.00
2022-09-15T00:34:37.224Z,0.00
2022-09-15T00:35:37.224Z,0.00
2022-09-15T00:36:37.219Z,0.00
2022-09-15T00:37:37.220Z,0.00
2022-09-15T00:38:37.202Z,0.00
2022-09-15T00:39:37.219Z,0.00
2022-09-15T00:40:37.177Z,0.00
2022-09-15T00:41:37.180Z,0.00
2022-09-15T00:42:37.157Z,0.00
2022-09-15T00:43:37.149Z,0.00
2022-09-15T00:44:37.138Z,0.00
2022-09-15T00:45:37.222Z,0.00
2022-09-15T00:46:37.133Z,0.00
2022-09-15T00:47:37.146Z,0.00
2022-09-15T00:48:37.108Z,0.00
2022-09-15T00:49:37.100Z,0.00
2022-09-15T00:50:37.091Z,0.00
2022-09-15T00:51:37.097Z,0.00
2022-09-15T00:52:37.072Z,0.00
2022-09-15T00:53:37.062Z,0.00
2022-09-15T00:54:37.065Z,0.00
2022-09-15T00:55:37.064Z,0.00
2022-09-15T00:56:37.033Z,0.00
2022-09-15T00:57:37.053Z,0.00
2022-09-15T00:58:37.022Z,0.00
2022-09-15T00:59:37.014Z,0.00
2022-09-15T01:00:37.010Z,0.00
2022-09-15T01:01:37.026Z,0.00
2022-09-15T01:02:37.031Z,0.00
2022-09-15T01:03:36.996Z,0.00
2022-09-15T01:04:37.081Z,0.00
2022-09-15T01:05:36.956Z,0.00
2022-09-15T01:06:36.947Z,0.00
2022-09-15T01:07:36.947Z,0.00
2022-09-15T01:08:36.929Z,0.00
2022-09-15T01:09:36.950Z,0.00
2022-09-15T01:10:36.918Z,0.00
2022-09-15T01:11:36.912Z,0.00
2022-09-15T01:12:36.900Z,0.00
2022-09-15T01:13:36.912Z,0.00
2022-09-15T01:14:36.894Z,0.00
2022-09-15T01:15:36.901Z,0.00
2022-09-15T01:16:36.904Z,0.00
2022-09-15T01:17:36.861Z,0.00
2022-09-15T01:18:36.852Z,0.00
2022-09-15T01:19:36.844Z,0.00
2022-09-15T01:20:36.832Z,0.00
2022-09-15T01:21:36.853Z,0.00
2022-09-15T01:22:36.814Z,0.00
2022-09-15T01:23:36.826Z,0.00
2022-09-15T01:24:36.808Z,0.00
2022-09-15T01:25:36.795Z,0.00
2022-09-15T01:26:36.799Z,0.00
2022-09-15T01:27:42.463Z,0.00
2022-09-15T01:28:36.780Z,0.00
2022-09-15T01:29:36.757Z,0.00
2022-09-15T01:30:36.760Z,0.00
2022-09-15T01:31:36.829Z,0.00
2022-09-15T01:32:36.741Z,0.00
2022-09-15T01:33:36.760Z,0.00
2022-09-15T01:34:36.730Z,0.00
2022-09-15T01:35:36.724Z,0.00
2022-09-15T01:36:36.712Z,0.00
2022-09-15T01:37:36.697Z,0.00
2022-09-15T01:38:36.694Z,0.00
2022-09-15T01:39:36.698Z,0.00
2022-09-15T01:40:36.677Z,0.00
2022-09-15T01:41:36.674Z,0.00
2022-09-15T01:42:36.643Z,0.00
2022-09-15T01:43:36.642Z,0.00
2022-09-15T01:44:36.646Z,0.00
2022-09-15T01:45:36.700Z,0.00
2022-09-15T01:46:36.614Z,0.00
2022-09-15T01:47:36.619Z,0.00
2022-09-15T01:48:36.594Z,0.00
2022-09-15T01:49:36.598Z,0.00
2022-09-15T01:50:36.589Z,0.00
2022-09-15T01:51:36.601Z,0.00
2022-09-15T01:52:36.565Z,0.00
2022-09-15T01:53:36.570Z,0.00
2022-09-15T01:54:36.559Z,0.00
2022-09-15T01:55:36.537Z,0.00
2022-09-15T01:56:36.527Z,0.00
2022-09-15T01:57:36.537Z,0.00
2022-09-15T01:58:36.521Z,0.00
2022-09-15T01:59:36.521Z,0.00
2022-09-15T02:00:36.504Z,0.00
2022-09-15T02:01:36.572Z,0.00
2022-09-15T02:02:36.554Z,0.00
2022-09-15T02:03:36.490Z,0.00
2022-09-15T02:04:36.474Z,0.00
2022-09-15T02:05:36.453Z,0.00
2022-09-15T02:06:36.442Z,0.00
2022-09-15T02:07:36.442Z,0.00
2022-09-15T02:08:36.436Z,0.00
2022-09-15T02:09:36.444Z,0.00
2022-09-15T02:10:36.425Z,0.00
2022-09-15T02:11:36.413Z,0.00
2022-09-15T02:12:36.407Z,0.00
2022-09-15T02:13:36.395Z,0.00
2022-09-15T02:14:36.374Z,0.00
2022-09-15T02:15:36.399Z,0.00
2022-09-15T02:16:36.456Z,0.00
2022-09-15T02:17:36.355Z,0.00
2022-09-15T02:18:36.347Z,0.00
2022-09-15T02:19:36.336Z,0.00
2022-09-15T02:20:36.341Z,0.00
2022-09-15T02:21:36.340Z,0.00
2022-09-15T02:22:36.308Z,0.00
2022-09-15T02:23:36.299Z,0.00
2022-09-15T02:24:36.290Z,0.00
2022-09-15T02:25:36.289Z,0.00
2022-09-15T02:26:36.284Z,0.00
2022-09-15T02:27:36.288Z,0.00
2022-09-15T02:28:36.265Z,0.00
2022-09-15T02:29:36.268Z,0.00
2022-09-15T02:30:36.254Z,0.00
2022-09-15T02:31:36.283Z,0.00
2022-09-15T02:32:36.223Z,0.00
2022-09-15T02:33:36.252Z,0.00
2022-09-15T02:34:36.203Z,0.00
2022-09-15T02:35:36.203Z,0.00
2022-09-15T02:36:36.197Z,0.00
2022-09-15T02:37:36.185Z,0.00
2022-09-15T02:38:36.164Z,0.00
2022-09-15T02:39:36.175Z,0.00
2022-09-15T02:40:36.158Z,0.00
2022-09-15T02:41:36.159Z,0.00
2022-09-15T02:42:36.136Z,0.00
2022-09-15T02:43:36.149Z,0.00
2022-09-15T02:44:36.118Z,0.00
2022-09-15T02:45:36.243Z,0.00
2022-09-15T02:46:36.120Z,0.00
2022-09-15T02:47:36.098Z,0.00
2022-09-15T02:48:36.090Z,0.00
2022-09-15T02:49:36.080Z,0.00
2022-09-15T02:50:36.082Z,0.00
2022-09-15T02:51:36.079Z,0.00
2022-09-15T02:52:36.057Z,0.00
2022-09-15T02:53:36.064Z,0.00
2022-09-15T02:54:36.031Z,0.00
2022-09-15T02:55:36.044Z,0.00
2022-09-15T02:56:36.034Z,0.00
2022-09-15T02:57:36.022Z,0.00
2022-09-15T02:58:36.017Z,0.00
2022-09-15T02:59:35.993Z,0.00
2022-09-15T03:00:36.026Z,0.00
2022-09-15T03:01:36.035Z,0.00
2022-09-15T03:02:35.979Z,0.00
2022-09-15T03:03:38.845Z,0.00
2022-09-15T03:04:35.954Z,0.00
2022-09-15T03:05:35.961Z,0.00
2022-09-15T03:06:35.935Z,0.00
2022-09-15T03:07:35.945Z,0.00
2022-09-15T03:08:35.933Z,0.00
2022-09-15T03:09:35.917Z,0.00
2022-09-15T03:10:35.911Z,0.00
2022-09-15T03:11:35.898Z,0.00
2022-09-15T03:12:35.894Z,0.00
2022-09-15T03:13:35.892Z,0.00
2022-09-15T03:14:35.867Z,0.00
2022-09-15T03:15:35.882Z,0.00
2022-09-15T03:16:35.942Z,0.00
2022-09-15T03:17:35.862Z,0.00
2022-09-15T03:18:35.831Z,0.00
2022-09-15T03:19:35.842Z,0.00
2022-09-15T03:20:35.828Z,0.00
2022-09-15T03:21:35.823Z,0.00
2022-09-15T03:22:35.809Z,0.00
2022-09-15T03:23:35.794Z,0.00
2022-09-15T03:24:35.791Z,0.00
2022-09-15T03:25:35.787Z,0.00
2022-09-15T03:26:35.774Z,0.00
2022-09-15T03:27:35.867Z,0.00
2022-09-15T03:28:35.767Z,0.00
2022-09-15T03:29:35.749Z,0.00
2022-09-15T03:30:35.735Z,0.00
2022-09-15T03:31:35.768Z,0.00
2022-09-15T03:32:35.716Z,0.00
2022-09-15T03:33:35.730Z,0.00
2022-09-15T03:34:35.698Z,0.00
2022-09-15T03:35:35.701Z,0.00
2022-09-15T03:36:35.688Z,0.00
2022-09-15T03:37:35.682Z,0.00
2022-09-15T03:38:35.692Z,0.00
2022-09-15T03:39:35.659Z,0.00
2022-09-15T03:40:35.650Z,0.00
2022-09-15T03:41:35.641Z,0.00
2022-09-15T03:42:35.631Z,0.00
2022-09-15T03:43:35.633Z,0.00
2022-09-15T03:44:35.625Z,0.00
2022-09-15T03:45:35.683Z,0.00
2022-09-15T03:46:35.602Z,0.00
2022-09-15T03:47:35.606Z,0.00
2022-09-15T03:48:35.596Z,0.00
2022-09-15T03:49:35.564Z,0.00
2022-09-15T03:50:35.565Z,0.00
2022-09-15T03:51:35.578Z,0.00
2022-09-15T03:52:35.558Z,0.00
2022-09-15T03:53:35.532Z,0.00
2022-09-15T03:54:35.536Z,0.00
2022-09-15T03:55:35.518Z,0.00
2022-09-15T03:56:35.516Z,0.00
2022-09-15T03:57:35.520Z,0.00
2022-09-15T03:58:35.497Z,0.00
2022-09-15T03:59:35.499Z,0.00
2022-09-15T04:00:35.524Z,0.00
2022-09-15T04:01:35.497Z,0.00
2022-09-15T04:02:35.475Z,0.00
2022-09-15T04:03:40.244Z,0.00
2022-09-15T04:04:35.453Z,0.00
2022-09-15T04:05:35.437Z,0.00
2022-09-15T04:06:35.431Z,0.00
2022-09-15T04:07:35.424Z,0.00
2022-09-15T04:08:35.427Z,0.00
2022-09-15T04:09:35.426Z,0.00
2022-09-15T04:10:35.392Z,0.00
2022-09-15T04:11:35.383Z,0.00
2022-09-15T04:12:35.384Z,0.00
2022-09-15T04:13:35.377Z,0.00
2022-09-15T04:14:35.363Z,0.00
2022-09-15T04:15:35.369Z,0.00
2022-09-15T04:16:35.399Z,0.00
2022-09-15T04:17:35.336Z,0.00
2022-09-15T04:18:35.347Z,0.00
2022-09-15T04:19:35.316Z,0.00
2022-09-15T04:20:35.320Z,0.00
2022-09-15T04:21:35.321Z,0.00
2022-09-15T04:22:35.296Z,0.00
2022-09-15T04:23:35.292Z,0.00
2022-09-15T04:24:35.290Z,0.00
2022-09-15T04:25:35.271Z,0.00
2022-09-15T04:26:35.258Z,0.00
2022-09-15T04:27:35.259Z,0.00
2022-09-15T04:28:35.253Z,0.00
2022-09-15T04:29:35.244Z,0.00
2022-09-15T04:30:35.220Z,0.00
2022-09-15T04:31:35.243Z,0.00
2022-09-15T04:32:35.202Z,0.00
2022-09-15T04:33:35.203Z,0.00
2022-09-15T04:34:39.261Z,0.00
2022-09-15T04:35:35.196Z,0.00
2022-09-15T04:36:35.173Z,0.00
2022-09-15T04:37:35.163Z,0.00
2022-09-15T04:38:35.154Z,0.00
2022-09-15T04:39:35.287Z,0.00
2022-09-15T04:40:35.143Z,0.00
2022-09-15T04:41:35.138Z,0.00
2022-09-15T04:42:35.126Z,0.00
2022-09-15T04:43:35.121Z,0.00
2022-09-15T04:44:35.119Z,0.00
2022-09-15T04:45:35.116Z,0.00
2022-09-15T04:46:35.149Z,0.00
2022-09-15T04:47:35.093Z,0.00
2022-09-15T04:48:35.069Z,0.00
2022-09-15T04:49:35.413Z,0.00
2022-09-15T04:50:35.061Z,0.00
2022-09-15T04:51:35.048Z,0.00
2022-09-15T04:52:35.042Z,0.00
2022-09-15T04:53:35.033Z,0.00
2022-09-15T04:54:35.031Z,0.00
2022-09-15T04:55:35.018Z,0.00
2022-09-15T04:56:35.014Z,0.00
2022-09-15T04:57:35.022Z,0.00
2022-09-15T04:58:34.995Z,0.00
2022-09-15T04:59:34.971Z,0.00
2022-09-15T05:00:34.967Z,0.00
2022-09-15T05:01:34.985Z,0.00
2022-09-15T05:02:35.091Z,0.00
2022-09-15T05:03:34.967Z,0.00
2022-09-15T05:04:34.947Z,0.00
2022-09-15T05:05:34.928Z,0.00
2022-09-15T05:06:35.052Z,0.00
2022-09-15T05:07:34.908Z,0.00
2022-09-15T05:08:34.897Z,0.00
2022-09-15T05:09:34.910Z,0.00
2022-09-15T05:10:34.894Z,5.62
2022-09-15T05:11:34.880Z,5.62
2022-09-15T05:12:34.926Z,5.62
2022-09-15T05:13:34.847Z,5.62
2022-09-15T05:14:34.858Z,5.62
2022-09-15T05:15:34.837Z,5.62
2022-09-15T05:16:34.861Z,5.62
2022-09-15T05:17:34.824Z,5.62
2022-09-15T05:18:34.809Z,11.25
2022-09-15T05:19:34.810Z,11.25
2022-09-15T05:20:34.803Z,16.88
2022-09-15T05:21:34.814Z,16.88
2022-09-15T05:22:38.302Z,16.88
2022-09-15T05:23:34.788Z,11.25
2022-09-15T05:24:34.751Z,11.25
2022-09-15T05:25:34.755Z,11.25
2022-09-15T05:26:34.744Z,11.25
2022-09-15T05:27:34.733Z,11.25
2022-09-15T05:28:34.724Z,11.25
2022-09-15T05:29:34.705Z,11.25
2022-09-15T05:30:39.564Z,16.88
2022-09-15T05:31:34.768Z,16.88
2022-09-15T05:32:34.698Z,16.88
2022-09-15T05:33:34.689Z,16.88
2022-09-15T05:34:34.666Z,16.88
2022-09-15T05:35:34.660Z,16.88
2022-09-15T05:36:34.660Z,16.88
2022-09-15T05:37:34.647Z,22.50
2022-09-15T05:38:34.641Z,22.50
2022-09-15T05:39:34.636Z,28.12
2022-09-15T05:40:34.640Z,28.12
2022-09-15T05:41:34.612Z,28.12
2022-09-15T05:42:34.597Z,28.12
2022-09-15T05:43:34.579Z,28.12
2022-09-15T05:44:34.591Z,28.12
2022-09-15T05:45:34.590Z,33.75
2022-09-15T05:46:34.640Z,33.75
2022-09-15T05:47:34.541Z,33.75
2022-09-15T05:48:34.542Z,33.75
2022-09-15T05:49:34.537Z,28.12
2022-09-15T05:50:34.537Z,33.75
2022-09-15T05:51:34.537Z,33.75
2022-09-15T05:52:34.517Z,33.75
2022-09-15T05:53:34.497Z,33.75
2022-09-15T05:54:34.505Z,33.75
2022-09-15T05:55:34.488Z,28.12
2022-09-15T05:56:34.485Z,28.12
2022-09-15T05:57:34.490Z,22.50
2022-09-15T05:58:34.486Z,16.88
2022-09-15T05:59:34.449Z,16.88
2022-09-15T06:00:34.439Z,16.88
2022-09-15T06:01:34.460Z,16.88
2022-09-15T06:02:34.495Z,22.50
2022-09-15T06:03:34.421Z,28.12
2022-09-15T06:04:34.412Z,33.75
2022-09-15T06:05:34.403Z,33.75
2022-09-15T06:06:34.378Z,33.75
2022-09-15T06:07:34.371Z,33.75
2022-09-15T06:08:34.361Z,33.75
2022-09-15T06:09:34.373Z,33.75
2022-09-15T06:10:34.365Z,33.75
2022-09-15T06:11:34.341Z,33.75
2022-09-15T06:12:34.346Z,33.75
2022-09-15T06:13:34.325Z,33.75
2022-09-15T06:14:34.312Z,33.75
2022-09-15T06:15:34.313Z,33.75
2022-09-15T06:16:34.447Z,39.38
2022-09-15T06:17:34.285Z,39.38
2022-09-15T06:18:34.273Z,39.38
2022-09-15T06:19:34.264Z,39.38
2022-09-15T06:20:34.264Z,45.00
2022-09-15T06:21:34.254Z,45.00
2022-09-15T06:22:34.246Z,50.62
2022-09-15T06:23:34.228Z,50.62
2022-09-15T06:24:34.228Z,56.25
2022-09-15T06:25:34.220Z,56.25
2022-09-15T06:26:34.208Z,61.88
2022-09-15T06:27:34.210Z,61.88
2022-09-15T06:28:34.187Z,61.88
2022-09-15T06:29:34.181Z,61.88
2022-09-15T06:30:34.168Z,56.25
2022-09-15T06:31:34.221Z,61.88
2022-09-15T06:32:34.162Z,56.25
2022-09-15T06:33:34.160Z,56.25
2022-09-15T06:34:34.130Z,56.25
2022-09-15T06:35:34.123Z,56.25
2022-09-15T06:36:34.133Z,61.88
2022-09-15T06:37:34.101Z,61.88
2022-09-15T06:38:34.113Z,67.50
2022-09-15T06:39:34.106Z,73.12
2022-09-15T06:40:34.169Z,67.50
2022-09-15T06:41:52.896Z,73.12
2022-09-15T06:42:34.077Z,78.75
2022-09-15T06:43:34.074Z,78.75
2022-09-15T06:44:34.044Z,78.75
2022-09-15T06:45:34.059Z,78.75
2022-09-15T06:46:34.091Z,78.75
2022-09-15T06:47:34.200Z,84.38
2022-09-15T06:48:34.015Z,84.38
2022-09-15T06:49:33.996Z,90.00
2022-09-15T06:50:34.009Z,95.62
2022-09-15T06:51:34.016Z,95.62
2022-09-15T06:52:33.977Z,101.25
2022-09-15T06:53:33.981Z,101.25
2022-09-15T06:54:33.960Z,106.88
2022-09-15T06:55:33.962Z,101.25
2022-09-15T06:56:37.922Z,101.25
2022-09-15T06:57:33.939Z,101.25
2022-09-15T06:58:33.972Z,106.88
2022-09-15T06:59:33.933Z,106.88
2022-09-15T07:00:33.931Z,106.88
2022-09-15T07:01:33.900Z,106.88
2022-09-15T07:02:34.046Z,112.50
2022-09-15T07:03:33.989Z,112.50
2022-09-15T07:04:33.885Z,106.88
2022-09-15T07:05:33.862Z,123.75
2022-09-15T07:06:33.866Z,129.38
2022-09-15T07:07:33.844Z,146.25
2022-09-15T07:08:33.845Z,185.62
2022-09-15T07:09:33.844Z,219.38
2022-09-15T07:10:33.840Z,202.50
2022-09-15T07:11:33.816Z,163.12
2022-09-15T07:12:33.805Z,140.62
2022-09-15T07:13:33.809Z,101.25
2022-09-15T07:14:33.809Z,123.75
2022-09-15T07:15:33.808Z,135.00
2022-09-15T07:16:33.813Z,129.38
2022-09-15T07:17:33.771Z,123.75
2022-09-15T07:18:33.756Z,135.00
2022-09-15T07:19:33.761Z,135.00
2022-09-15T07:20:33.738Z,135.00
2022-09-15T07:21:33.762Z,118.12
2022-09-15T07:22:33.734Z,84.38
2022-09-15T07:23:33.724Z,61.88
2022-09-15T07:24:33.723Z,56.25
2022-09-15T07:25:33.705Z,45.00
2022-09-15T07:26:33.707Z,33.75
2022-09-15T07:27:33.701Z,28.12
2022-09-15T07:28:33.681Z,22.50
2022-09-15T07:29:37.595Z,16.88
2022-09-15T07:30:33.652Z,22.50
2022-09-15T07:31:33.734Z,22.50
2022-09-15T07:32:33.646Z,28.12
2022-09-15T07:33:33.634Z,28.12
2022-09-15T07:34:33.622Z,28.12
2022-09-15T07:35:33.617Z,33.75
2022-09-15T07:36:33.617Z,33.75
2022-09-15T07:37:33.592Z,33.75
2022-09-15T07:38:33.596Z,33.75
2022-09-15T07:39:33.585Z,33.75
2022-09-15T07:40:33.609Z,33.75
2022-09-15T07:41:33.571Z,22.50
2022-09-15T07:42:35.571Z,16.88
2022-09-15T07:43:33.550Z,11.25
2022-09-15T07:44:33.541Z,11.25
2022-09-15T07:45:33.597Z,11.25
2022-09-15T07:46:33.518Z,11.25
2022-09-15T07:47:33.523Z,11.25
2022-09-15T07:48:33.502Z,11.25
2022-09-15T07:49:33.503Z,11.25
2022-09-15T07:50:33.494Z,11.25
2022-09-15T07:51:33.502Z,11.25
2022-09-15T07:52:33.474Z,11.25
2022-09-15T07:53:33.451Z,16.88
2022-09-15T07:54:33.441Z,16.88
2022-09-15T07:55:33.455Z,16.88
2022-09-15T07:56:33.424Z,16.88
2022-09-15T07:57:33.457Z,16.88
2022-09-15T07:58:33.403Z,16.88
2022-09-15T07:59:33.418Z,22.50
2022-09-15T08:00:33.443Z,22.50
2022-09-15T08:01:33.425Z,22.50
2022-09-15T08:02:33.388Z,22.50
2022-09-15T08:03:33.376Z,22.50
2022-09-15T08:04:33.370Z,16.88
2022-09-15T08:05:38.161Z,16.88
2022-09-15T08:06:33.347Z,16.88
2022-09-15T08:07:33.339Z,22.50
2022-09-15T08:08:33.326Z,22.50
2022-09-15T08:09:33.349Z,22.50
2022-09-15T08:10:33.329Z,28.12
2022-09-15T08:11:33.307Z,33.75
2022-09-15T08:12:33.289Z,39.38
2022-09-15T08:13:33.289Z,45.00
2022-09-15T08:14:33.283Z,50.62
2022-09-15T08:15:33.282Z,61.88
2022-09-15T08:16:33.310Z,61.88
2022-09-15T08:17:33.265Z,56.25
2022-09-15T08:18:33.254Z,56.25
2022-09-15T08:19:33.246Z,56.25
2022-09-15T08:20:33.240Z,61.88
2022-09-15T08:21:33.253Z,67.50
2022-09-15T08:22:33.217Z,73.12
2022-09-15T08:23:33.203Z,73.12
2022-09-15T08:24:33.197Z,73.12
2022-09-15T08:25:33.198Z,67.50
2022-09-15T08:26:33.174Z,73.12
2022-09-15T08:27:33.185Z,78.75
2022-09-15T08:28:33.156Z,90.00
2022-09-15T08:29:33.159Z,106.88
2022-09-15T08:30:33.136Z,135.00
2022-09-15T08:31:33.186Z,151.88
2022-09-15T08:32:33.130Z,123.75
2022-09-15T08:33:33.261Z,118.12
2022-09-15T08:34:33.107Z,123.75
2022-09-15T08:35:33.098Z,118.12
2022-09-15T08:36:33.087Z,112.50
2022-09-15T08:37:33.092Z,106.88
2022-09-15T08:38:33.084Z,112.50
2022-09-15T08:39:33.090Z,129.38
2022-09-15T08:40:33.160Z,146.25
2022-09-15T08:41:33.051Z,146.25
2022-09-15T08:42:33.044Z,151.88
2022-09-15T08:43:33.045Z,151.88
2022-09-15T08:44:33.031Z,151.88
2022-09-15T08:45:33.037Z,151.88
2022-09-15T08:46:33.045Z,157.50
2022-09-15T08:47:33.006Z,157.50
2022-09-15T08:48:32.997Z,151.88
2022-09-15T08:49:50.522Z,135.00
2022-09-15T08:50:32.977Z,123.75
2022-09-15T08:51:32.995Z,129.38
2022-09-15T08:52:32.944Z,129.38
2022-09-15T08:53:32.945Z,118.12
2022-09-15T08:54:32.939Z,118.12
2022-09-15T08:55:32.942Z,118.12
2022-09-15T08:56:32.937Z,118.12
2022-09-15T08:57:32.917Z,112.50
2022-09-15T08:58:32.897Z,106.88
2022-09-15T08:59:32.888Z,106.88
2022-09-15T09:00:32.891Z,101.25
2022-09-15T09:01:32.924Z,95.62
2022-09-15T09:02:32.881Z,95.62
2022-09-15T09:03:32.889Z,95.62
2022-09-15T09:04:32.853Z,90.00
2022-09-15T09:05:32.853Z,84.38
2022-09-15T09:06:32.830Z,84.38
2022-09-15T09:07:32.834Z,78.75
2022-09-15T09:08:32.813Z,78.75
2022-09-15T09:09:32.835Z,78.75
2022-09-15T09:10:32.806Z,84.38
2022-09-15T09:11:32.803Z,90.00
2022-09-15T09:12:32.772Z,101.25
2022-09-15T09:13:35.583Z,112.50
2022-09-15T09:14:32.768Z,140.62
2022-09-15T09:15:32.869Z,163.12
2022-09-15T09:16:32.744Z,168.75
2022-09-15T09:17:32.749Z,157.50
2022-09-15T09:18:32.726Z,146.25
2022-09-15T09:19:32.721Z,140.62
2022-09-15T09:20:32.719Z,140.62
2022-09-15T09:21:32.744Z,146.25
2022-09-15T09:22:32.703Z,151.88
2022-09-15T09:23:32.701Z,163.12
2022-09-15T09:24:32.698Z,174.38
2022-09-15T09:25:32.671Z,185.62
2022-09-15T09:26:32.658Z,208.12
2022-09-15T09:27:32.690Z,219.38
2022-09-15T09:28:32.652Z,225.00
2022-09-15T09:29:32.638Z,225.00
2022-09-15T09:30:32.635Z,213.75
2022-09-15T09:31:32.620Z,213.75
2022-09-15T09:32:32.624Z,208.12
2022-09-15T09:33:32.633Z,208.12
2022-09-15T09:34:32.595Z,213.75
2022-09-15T09:35:32.595Z,219.38
2022-09-15T09:36:32.573Z,208.12
2022-09-15T09:37:32.576Z,191.25
2022-09-15T09:38:32.568Z,174.38
2022-09-15T09:39:32.574Z,174.38
2022-09-15T09:40:32.622Z,174.38
2022-09-15T09:41:32.549Z,174.38
2022-09-15T09:42:32.525Z,168.75
2022-09-15T09:43:32.528Z,163.12
2022-09-15T09:44:32.518Z,157.50
2022-09-15T09:45:32.530Z,151.88
2022-09-15T09:46:32.538Z,157.50
2022-09-15T09:47:32.485Z,168.75
2022-09-15T09:48:32.483Z,185.62
2022-09-15T09:49:32.468Z,185.62
2022-09-15T09:50:32.461Z,185.62
2022-09-15T09:51:32.476Z,191.25
2022-09-15T09:52:32.438Z,185.62
2022-09-15T09:53:32.461Z,180.00
2022-09-15T09:54:32.433Z,174.38
2022-09-15T09:55:32.433Z,185.62
2022-09-15T09:56:32.414Z,196.88
2022-09-15T09:57:32.412Z,185.62
2022-09-15T09:58:32.406Z,191.25
2022-09-15T09:59:32.383Z,185.62
2022-09-15T10:00:32.378Z,174.38
2022-09-15T10:01:32.410Z,174.38
2022-09-15T10:02:32.353Z,185.62
2022-09-15T10:03:33.125Z,202.50
2022-09-15T10:04:32.409Z,202.50
2022-09-15T10:05:32.337Z,185.62
2022-09-15T10:06:32.315Z,174.38
2022-09-15T10:07:32.327Z,163.12
2022-09-15T10:08:32.309Z,151.88
2022-09-15T10:09:33.519Z,157.50
2022-09-15T10:10:32.406Z,157.50
2022-09-15T10:11:32.290Z,163.12
2022-09-15T10:12:32.281Z,168.75
2022-09-15T10:13:32.266Z,163.12
2022-09-15T10:14:32.247Z,157.50
2022-09-15T10:15:32.257Z,157.50
2022-09-15T10:16:32.292Z,168.75
2022-09-15T10:17:32.242Z,174.38
2022-09-15T10:18:32.217Z,191.25
2022-09-15T10:19:32.224Z,202.50
2022-09-15T10:20:32.221Z,202.50
2022-09-15T10:21:32.211Z,180.00
2022-09-15T10:22:32.194Z,174.38
2022-09-15T10:23:32.181Z,174.38
2022-09-15T10:24:32.176Z,180.00
2022-09-15T10:25:44.521Z,191.25
2022-09-15T10:26:32.195Z,213.75
2022-09-15T10:27:32.177Z,219.38
2022-09-15T10:28:32.143Z,219.38
2022-09-15T10:29:32.133Z,208.12
2022-09-15T10:30:32.114Z,196.88
2022-09-15T10:31:32.188Z,174.38
2022-09-15T10:32:32.094Z,151.88
2022-09-15T10:33:32.105Z,135.00
2022-09-15T10:34:32.097Z,135.00
2022-09-15T10:35:32.076Z,135.00
2022-09-15T10:36:32.080Z,151.88
2022-09-15T10:37:32.056Z,157.50
2022-09-15T10:38:32.047Z,157.50
2022-09-15T10:39:32.049Z,168.75
2022-09-15T10:40:32.084Z,157.50
2022-09-15T10:41:32.040Z,157.50
2022-09-15T10:42:32.022Z,163.12
2022-09-15T10:43:32.025Z,157.50
2022-09-15T10:44:31.998Z,151.88
2022-09-15T10:45:32.146Z,157.50
2022-09-15T10:46:33.240Z,146.25
2022-09-15T10:47:31.984Z,135.00
2022-09-15T10:48:31.974Z,135.00
2022-09-15T10:49:31.965Z,146.25
2022-09-15T10:50:31.941Z,146.25
2022-09-15T10:51:31.951Z,168.75
2022-09-15T10:52:31.936Z,185.62
2022-09-15T10:53:31.937Z,180.00
2022-09-15T10:54:31.927Z,163.12
2022-09-15T10:55:51.580Z,168.75
2022-09-15T10:56:31.894Z,191.25
2022-09-15T10:57:31.917Z,196.88
2022-09-15T10:58:31.888Z,180.00
2022-09-15T10:59:31.889Z,168.75
2022-09-15T11:00:32.013Z,163.12
2022-09-15T11:01:31.886Z,157.50
2022-09-15T11:02:31.899Z,151.88
2022-09-15T11:03:31.857Z,151.88
2022-09-15T11:04:31.842Z,163.12
2022-09-15T11:05:31.818Z,174.38
2022-09-15T11:06:31.821Z,180.00
2022-09-15T11:07:31.822Z,196.88
2022-09-15T11:08:31.791Z,185.62
2022-09-15T11:09:31.821Z,185.62
2022-09-15T11:10:31.783Z,185.62
2022-09-15T11:11:31.791Z,180.00
2022-09-15T11:12:31.758Z,185.62
2022-09-15T11:13:31.765Z,185.62
2022-09-15T11:14:31.752Z,185.62
2022-09-15T11:15:31.756Z,185.62
2022-09-15T11:16:31.754Z,185.62
2022-09-15T11:17:31.736Z,180.00
2022-09-15T11:18:31.703Z,174.38
2022-09-15T11:19:31.703Z,168.75
2022-09-15T11:20:31.694Z,168.75
2022-09-15T11:21:31.700Z,163.12
2022-09-15T11:22:31.681Z,163.12
2022-09-15T11:23:31.678Z,157.50
2022-09-15T11:24:31.675Z,151.88
2022-09-15T11:25:31.646Z,146.25
2022-09-15T11:26:31.657Z,151.88
2022-09-15T11:27:31.637Z,146.25
2022-09-15T11:28:31.617Z,140.62
2022-09-15T11:29:31.630Z,135.00
2022-09-15T11:30:31.603Z,129.38
2022-09-15T11:31:31.712Z,135.00
2022-09-15T11:32:31.589Z,146.25
2022-09-15T11:33:31.589Z,163.12
2022-09-15T11:34:31.587Z,180.00
2022-09-15T11:35:31.569Z,191.25
2022-09-15T11:36:31.552Z,213.75
2022-09-15T11:37:31.564Z,202.50
2022-09-15T11:38:31.549Z,191.25
2022-09-15T11:39:31.555Z,208.12
2022-09-15T11:40:31.570Z,230.62
2022-09-15T11:41:31.512Z,230.62
2022-09-15T11:42:31.503Z,230.62
2022-09-15T11:43:31.495Z,236.25
2022-09-15T11:44:31.497Z,264.38
2022-09-15T11:45:31.507Z,219.38
2022-09-15T11:46:31.500Z,196.88
2022-09-15T11:47:31.478Z,180.00
2022-09-15T11:48:31.458Z,185.62
2022-09-15T11:49:31.460Z,191.25
2022-09-15T11:50:31.436Z,180.00
2022-09-15T11:51:31.437Z,157.50
2022-09-15T11:52:31.431Z,157.50
2022-09-15T11:53:31.428Z,163.12
2022-09-15T11:54:31.700Z,180.00
2022-09-15T11:55:31.411Z,191.25
2022-09-15T11:56:31.378Z,202.50
2022-09-15T11:57:31.389Z,174.38
2022-09-15T11:58:31.384Z,174.38
2022-09-15T11:59:31.371Z,174.38
2022-09-15T12:00:31.351Z,185.62
2022-09-15T12:01:31.395Z,185.62
2022-09-15T12:02:31.386Z,174.38
2022-09-15T12:03:31.345Z,174.38
2022-09-15T12:04:31.337Z,180.00
2022-09-15T12:05:31.315Z,180.00
2022-09-15T12:06:31.303Z,174.38
2022-09-15T12:07:31.306Z,163.12
2022-09-15T12:08:31.297Z,140.62
2022-09-15T12:09:31.297Z,135.00
2022-09-15T12:10:31.280Z,129.38
2022-09-15T12:11:31.256Z,123.75
2022-09-15T12:12:31.432Z,118.12
2022-09-15T12:13:31.237Z,123.75
2022-09-15T12:14:31.237Z,135.00
2022-09-15T12:15:31.226Z,135.00
2022-09-15T12:16:31.229Z,146.25
2022-09-15T12:17:31.207Z,151.88
2022-09-15T12:18:41.059Z,146.25
2022-09-15T12:19:31.196Z,135.00
2022-09-15T12:20:31.192Z,123.75
2022-09-15T12:21:31.189Z,112.50
2022-09-15T12:22:31.183Z,106.88
2022-09-15T12:23:31.150Z,106.88
2022-09-15T12:24:31.163Z,112.50
2022-09-15T12:25:31.144Z,112.50
2022-09-15T12:26:31.132Z,101.25
2022-09-15T12:27:31.159Z,118.12
2022-09-15T12:29:31.115Z,118.12
2022-09-15T12:30:31.114Z,112.50
2022-09-15T12:31:31.136Z,123.75
2022-09-15T12:32:31.097Z,118.12
2022-09-15T12:33:31.083Z,118.12
2022-09-15T12:34:31.077Z,112.50
2022-09-15T12:35:31.069Z,101.25
2022-09-15T12:36:31.059Z,90.00
2022-09-15T12:37:31.050Z,78.75
2022-09-15T12:38:31.026Z,78.75
2022-09-15T12:39:31.027Z,73.12
2022-09-15T12:40:31.065Z,61.88
2022-09-15T12:41:31.011Z,61.88
2022-09-15T12:42:31.012Z,61.88
2022-09-15T12:43:31.008Z,61.88
2022-09-15T12:44:30.979Z,67.50
2022-09-15T12:45:31.013Z,78.75
2022-09-15T12:46:31.043Z,78.75
2022-09-15T12:47:30.963Z,78.75
2022-09-15T12:48:30.950Z,73.12
2022-09-15T12:49:30.930Z,73.12
2022-09-15T12:50:30.932Z,73.12
2022-09-15T12:51:30.931Z,67.50
2022-09-15T12:52:30.925Z,61.88
2022-09-15T12:53:30.970Z,56.25
2022-09-15T12:54:30.906Z,56.25
2022-09-15T12:55:30.884Z,56.25